Terminal Aerodrome Forecast
Issued by NWS

Home | Current Version | Previous Version | Graphics & Text | Print | Product List | Glossary On
Versions: 1 2 3 4 5 6 7 8 9 10 11 12 13 14 15 16 17
000
FTUS42 KMHX 272056 AAA
TAFPGV
TAF AMD
KPGV 272056Z 2721/2818 03012KT 6SM -RA OVC015
      TEMPO 2721/2723 3SM SHRA BR BKN010
     FM280400 36008KT P6SM OVC015
     FM281300 33010KT P6SM OVC040
      AMD LTD TO CLD VIS AND WIND=

USA.gov is the U.S. government's official web portal to all federal, state and local government web resources and services.